Data for 08/26/2013

Time Sea-Level Adjusted Pressure Absolute Pressure Temperature Relative Humidity Dew Point   
(mb) (inHg) (mb) (inHg) (C) (F) (%) (C) (F)
16:40 1018 30.06 847 25.01 27.5 81.6 24 5.2 41.4
16:45 1018 30.06 847 25.01 27.6 81.7 27 7.2 45
16:50 1018 30.06 847 25.01 27.7 81.9 22 4.6 40.2
00:05 1018 30.06 847 25.01 18.2 64.7 42 5.3 41.5
00:10 1018 30.06 847 25.01 18.4 65.1 42 5.3 41.5
00:15 1018 30.06 847 25.01 18.3 64.9 45 6.2 43.2
00:20 1018 30.06 847 25.01 18 64.4 44 5.7 42.3
00:25 1018 30.06 847 25.01 17.8 64 45 5.8 42.5
00:30 1018 30.06 847 25.01 17.8 64 45 5.8 42.4
00:35 1018 30.06 847 25.01 17.7 63.9 45 5.8 42.4
00:40 1018 30.06 847 25.01 17.8 64 46 6.1 43
00:45 1018 30.06 847 25.01 18.2 64.7 43 5.5 41.9
00:50 1018 30.06 847 25.01 19 66.2 40 5.2 41.4
00:55 1018 30.06 847 25.01 19.5 67 41 5.9 42.5
01:00 1018 30.06 847 25.01 18.6 65.6 45 6.7 44.1
01:05 1018 30.06 847 25.01 18 64.3 45 5.9 42.6
01:10 1018 30.06 847 25.01 18.2 64.8 44 6 42.8
01:15 1018 30.06 848 25.04 18.5 65.3 44 6.2 43.2
01:20 1018 30.06 848 25.04 18.2 64.7 45 6.3 43.3
01:25 1018 30.06 848 25.04 18.3 64.9 43 5.5 42
01:30 1018 30.06 848 25.04 18.9 65.9 42 5.7 42.2
01:35 1018 30.06 848 25.04 18.8 65.9 41 5.3 41.6
01:40 1019 30.09 848 25.04 18.8 65.9 42 5.7 42.2
01:45 1019 30.09 848 25.04 18.9 66 41 5.6 42.2
01:50 1019 30.09 848 25.04 19.1 66.4 41 5.7 42.3
01:55 1019 30.09 848 25.04 19.1 66.3 41 5.7 42.3
02:00 1019 30.09 848 25.04 18.9 66 43 6.1 43
02:05 1019 30.09 848 25.04 18.5 65.4 44 6.3 43.3
02:10 1019 30.09 848 25.04 18.2 64.7 46 6.4 43.6
02:15 1019 30.09 848 25.04 17.9 64.3 46 6.3 43.4
02:20 1019 30.09 848 25.04 17.8 64.1 47 6.6 43.8
02:25 1019 30.09 848 25.04 17.7 63.8 48 6.6 43.8
02:30 1019 30.09 848 25.04 17.6 63.7 48 6.7 44
02:35 1019 30.09 848 25.04 17.4 63.3 50 6.8 44.3
02:40 1019 30.09 848 25.04 17.2 62.9 52 7.2 45
02:45 1019 30.09 848 25.04 16.9 62.3 51 6.9 44.4
02:50 1019 30.09 848 25.04 16.8 62.3 51 6.7 44
02:55 1019 30.09 848 25.04 17 62.5 51 6.8 44.2
03:00 1019 30.09 848 25.04 16.9 62.4 51 6.9 44.4
03:05 1019 30.09 849 25.07 16.7 62.1 51 6.8 44.2
03:10 1019 30.09 849 25.07 16.8 62.2 51 6.6 43.9
03:15 1019 30.09 849 25.07 17.1 62.7 50 6.8 44.2
03:20 1020 30.12 849 25.07 17.1 62.8 50 6.7 44.1
03:25 1020 30.12 849 25.07 17.1 62.7 51 7 44.6
03:30 1020 30.12 849 25.07 17 62.6 49 6.4 43.5
03:35 1020 30.12 849 25.07 17.6 63.7 47 6.4 43.5
03:40 1020 30.12 849 25.07 17.7 63.8 48 6.7 44
03:45 1020 30.12 849 25.07 17.6 63.7 47 6.4 43.5
03:50 1020 30.12 849 25.07 17.7 63.9 48 6.5 43.8
03:55 1020 30.12 849 25.07 17.7 63.8 48 6.7 44
04:00 1020 30.12 849 25.07 17.6 63.7 49 6.7 44.1
04:05 1020 30.12 849 25.07 17.1 62.8 51 7 44.5
04:10 1020 30.12 850 25.1 17.1 62.7 50 6.7 44
04:15 1020 30.12 850 25.1 17.1 62.8 50 6.8 44.3
04:20 1020 30.12 850 25.1 16.9 62.5 51 6.9 44.5
04:25 1020 30.12 849 25.07 16.8 62.2 52 7 44.6
04:30 1020 30.12 849 25.07 16.5 61.7 57 8.1 46.5
04:35 1020 30.12 850 25.1 16.4 61.4 55 7.4 45.4
04:40 1020 30.12 850 25.1 16.5 61.6 52 6.8 44.2
04:45 1020 30.12 849 25.07 16.8 62.3 50 6.4 43.6
04:50 1020 30.12 850 25.1 16.9 62.5 51 7 44.5
04:55 1020 30.12 850 25.1 16.1 61 58 7.9 46.2
05:00 1020 30.12 850 25.1 15.7 60.2 54 6.6 43.8
05:05 1020 30.12 850 25.1 16 60.7 55 7 44.6
05:10 1020 30.12 850 25.1 15.6 60.1 56 6.9 44.4
05:15 1020 30.12 850 25.1 15.6 60.1 54 6.6 43.8
05:20 1020 30.12 850 25.1 15.7 60.3 56 6.9 44.4
05:25 1021 30.15 850 25.1 15.7 60.2 55 6.6 43.9
05:30 1020 30.12 850 25.1 15.7 60.3 54 6.6 43.9
05:35 1021 30.15 850 25.1 15.6 60 56 6.8 44.3
05:40 1021 30.15 850 25.1 15.3 59.5 56 6.7 44
05:45 1021 30.15 850 25.1 15.4 59.8 57 7 44.7
05:50 1021 30.15 850 25.1 15.5 59.9 56 6.9 44.4
05:55 1021 30.15 850 25.1 15.6 60.1 52 5.9 42.7
06:00 1021 30.15 850 25.1 15.9 60.7 55 7.1 44.8
06:05 1021 30.15 850 25.1 15.5 59.9 54 6.3 43.4
06:10 1021 30.15 850 25.1 15.5 59.9 55 6.7 44
06:15 1021 30.15 850 25.1 15.5 59.9 53 6.1 43
06:20 1021 30.15 850 25.1 15.6 60 53 6.2 43.1
06:25 1021 30.15 850 25.1 15.8 60.4 53 6.2 43.2
06:30 1021 30.15 850 25.1 15.9 60.7 55 6.9 44.4
06:35 1021 30.15 850 25.1 15.9 60.5 55 6.8 44.3
06:40 1021 30.15 850 25.1 15.8 60.5 55 6.9 44.3
06:45 1021 30.15 850 25.1 15.9 60.6 56 7.3 45.1
06:50 1021 30.15 850 25.1 15.8 60.4 56 7 44.6
06:55 1021 30.15 850 25.1 16.1 61 53 6.7 44
07:00 1021 30.15 850 25.1 16.5 61.7 53 7 44.5
07:05 1021 30.15 850 25.1 16.6 61.8 53 6.9 44.5
07:10 1021 30.15 850 25.1 16.7 62.1 53 7.3 45.1
07:15 1021 30.15 850 25.1 17.3 63.1 50 6.8 44.2
07:20 1021 30.15 850 25.1 17.6 63.8 49 6.9 44.5
07:25 1021 30.15 850 25.1 18.1 64.6 47 6.9 44.4
07:30 1021 30.15 850 25.1 18.3 64.9 46 6.7 44.1
07:35 1021 30.15 850 25.1 18.6 65.5 45 6.5 43.7
07:40 1021 30.15 850 25.1 18.6 65.4 46 6.7 44
07:45 1021 30.15 850 25.1 18.7 65.6 46 6.8 44.2
07:50 1021 30.15 850 25.1 18.7 65.6 47 7.2 45
07:55 1021 30.15 850 25.1 19 66.2 45 7 44.6
08:00 1021 30.15 850 25.1 19.2 66.6 43 6.6 43.9
08:05 1021 30.15 850 25.1 19.3 66.8 44 7 44.6
08:10 1021 30.15 850 25.1 19.8 67.7 43 6.9 44.4
08:15 1021 30.15 850 25.1 20.4 68.7 41 6.8 44.3
08:20 1021 30.15 850 25.1 20.8 69.5 39 6.7 44.1
08:25 1021 30.15 850 25.1 21 69.8 39 6.5 43.8
08:30 1021 30.15 850 25.1 20.8 69.5 38 6.1 43
08:35 1021 30.15 850 25.1 21 69.7 39 6.5 43.8
08:40 1021 30.15 850 25.1 21.5 70.7 36 6 42.8
08:45 1021 30.15 850 25.1 22 71.5 33 5.3 41.5
08:50 1021 30.15 850 25.1 22.1 71.8 33 5.5 41.8
08:55 1021 30.15 850 25.1 22.6 72.7 33 5.8 42.4
09:00 1021 30.15 850 25.1 23.1 73.6 32 5.5 42
09:05 1021 30.15 850 25.1 23.6 74.5 31 5.9 42.6
09:10 1021 30.15 850 25.1 23.8 74.9 30 5.6 42.1
09:15 1021 30.15 850 25.1 24.2 75.6 28 4.6 40.2
09:20 1021 30.15 850 25.1 24.8 76.6 29 5.6 42
09:25 1021 30.15 850 25.1 25.1 77.3 26 4.3 39.8
09:30 1021 30.15 850 25.1 25.4 77.7 26 4.9 40.8
09:35 1021 30.15 850 25.1 25.8 78.4 27 5.5 41.9
09:40 1021 30.15 850 25.1 25.7 78.2 27 5.3 41.5
09:45 1020 30.12 850 25.1 26.5 79.7 25 5.4 41.7
09:50 1021 30.15 850 25.1 26.4 79.6 26 5.6 42.2
09:55 1020 30.12 850 25.1 26.3 79.3 26 5.3 41.6
10:00 1020 30.12 850 25.1 26.3 79.4 25 4.8 40.6
10:05 1020 30.12 850 25.1 26.5 79.6 25 4.9 40.9
10:10 1020 30.12 850 25.1 27.5 81.6 24 5.4 41.7
10:15 1020 30.12 850 25.1 27.6 81.6 25 5.9 42.6
10:20 1020 30.12 849 25.07 27.4 81.3 24 5.1 41.2
10:25 1020 30.12 849 25.07 27.4 81.3 24 5.3 41.5
10:30 1020 30.12 849 25.07 27.5 81.4 25 5.8 42.4
10:35 1020 30.12 849 25.07 27.7 81.8 24 5.3 41.6
10:40 1020 30.12 849 25.07 27.5 81.5 24 5.5 41.8
10:45 1020 30.12 849 25.07 27.8 82 23 5 41.1
10:50 1020 30.12 849 25.07 28.2 82.7 22 5 41
10:55 1020 30.12 849 25.07 28.1 82.5 23 5.5 41.9
11:00 1020 30.12 849 25.07 27.8 82.1 24 5.5 42
11:05 1020 30.12 849 25.07 28.3 82.9 23 5.4 41.8
11:10 1020 30.12 849 25.07 29 84.3 22 5.5 41.8
11:15 1020 30.12 849 25.07 28.8 83.9 22 5.3 41.6
11:20 1020 30.12 849 25.07 28.8 83.8 22 5.4 41.7
11:25 1020 30.12 849 25.07 28.6 83.4 24 6.1 43
11:30 1020 30.12 849 25.07 28.4 83 23 5.7 42.3
11:35 1020 30.12 849 25.07 28.3 82.9 23 5.6 42
11:40 1020 30.12 849 25.07 27.7 81.9 24 5.5 42
11:45 1020 30.12 849 25.07 27.6 81.6 24 5.7 42.3
11:50 1019 30.09 849 25.07 27.6 81.7 23 5 41.1
11:55 1019 30.09 849 25.07 28.5 83.4 22 5.3 41.5
12:00 1019 30.09 849 25.07 27.9 82.2 24 5.9 42.6
12:05 1019 30.09 849 25.07 27.8 82.1 24 5.5 41.8
12:10 1019 30.09 849 25.07 27.7 81.9 24 5.7 42.3
12:15 1019 30.09 848 25.04 27.7 81.8 23 5 41.1
12:20 1019 30.09 848 25.04 27.7 81.8 24 5.6 42
12:25 1019 30.09 848 25.04 27.8 82 23 5.3 41.5
12:30 1019 30.09 848 25.04 27.2 80.9 24 4.9 40.8
12:35 1019 30.09 848 25.04 27.3 81.1 24 5.3 41.5
12:40 1019 30.09 848 25.04 27.8 82.1 23 5.3 41.5
12:45 1019 30.09 848 25.04 27.9 82.3 23 5.4 41.7
12:50 1019 30.09 848 25.04 27.8 82 23 5 41
12:55 1019 30.09 848 25.04 28 82.3 22 4.6 40.3
13:00 1019 30.09 848 25.04 28.8 83.9 21 4.8 40.6
13:05 1019 30.09 848 25.04 29.1 84.4 21 5.1 41.2
13:10 1019 30.09 848 25.04 28.8 83.8 22 5.2 41.3
13:15 1019 30.09 848 25.04 28.5 83.3 23 5.5 41.8
13:20 1019 30.09 848 25.04 28.2 82.7 28 8 46.5
13:25 1019 30.09 848 25.04 27.7 81.8 30 8.7 47.7
13:30 1019 30.09 848 25.04 27.6 81.6 27 7.2 45
13:35 1019 30.09 848 25.04 27.4 81.3 24 5.6 42.1
13:40 1019 30.09 848 25.04 27 80.7 23 4.6 40.2
13:45 1019 30.09 848 25.04 26.9 80.5 24 5 40.9
13:50 1019 30.09 848 25.04 27.3 81.2 23 4.9 40.9
13:55 1019 30.09 848 25.04 28 82.3 23 5.3 41.5
14:00 1019 30.09 848 25.04 28.2 82.8 22 4.6 40.2
14:05 1019 30.09 848 25.04 27.9 82.2 22 4.2 39.6
14:10 1019 30.09 848 25.04 27.7 81.9 22 4.1 39.3
14:15 1019 30.09 848 25.04 28.8 83.9 20 3.9 39.1
14:20 1019 30.09 848 25.04 28 82.4 21 4.1 39.4
14:25 1019 30.09 848 25.04 27.6 81.7 21 4 39.1
14:30 1019 30.09 848 25.04 27.5 81.6 23 4.6 40.3
14:35 1019 30.09 848 25.04 27.3 81.1 21 3.1 37.6
14:40 1019 30.09 848 25.04 26.6 79.9 22 3.5 38.2
14:45 1019 30.09 848 25.04 26.5 79.7 22 3.6 38.4
14:50 1019 30.09 848 25.04 26.5 79.7 21 2.9 37.3
14:55 1019 30.09 848 25.04 26.6 79.8 22 3.1 37.6
15:00 1019 30.09 848 25.04 27.6 81.6 20 2.7 36.9
15:05 1018 30.06 848 25.04 28.2 82.7 20 3.5 38.4
15:10 1018 30.06 848 25.04 27.7 81.8 23 4.7 40.5
15:15 1018 30.06 847 25.01 27.6 81.8 21 3.8 38.9
15:20 1018 30.06 847 25.01 27.3 81.1 22 4.3 39.7
15:25 1018 30.06 847 25.01 26.9 80.5 24 4.9 40.9
15:30 1018 30.06 847 25.01 26.9 80.4 24 4.7 40.5
15:35 1018 30.06 847 25.01 26.8 80.3 24 4.9 40.8
15:40 1018 30.06 847 25.01 26.9 80.3 23 4.2 39.6
15:45 1018 30.06 847 25.01 26.7 80.1 24 4.7 40.5
15:50 1018 30.06 847 25.01 27 80.6 26 6.3 43.3
15:55 1018 30.06 847 25.01 27.1 80.8 24 4.9 40.9
16:00 1018 30.06 847 25.01 26.9 80.4 23 4.5 40
16:05 1018 30.06 847 25.01 27.1 80.7 24 4.9 40.8
16:10 1018 30.06 847 25.01 27.4 81.3 24 5.1 41.1
16:15 1018 30.06 847 25.01 27.2 81 25 5.8 42.4
16:20 1018 30.06 847 25.01 27.1 80.9 25 5.6 42
16:25 1018 30.06 847 25.01 27.2 81 24 5.1 41.1
16:30 1018 30.06 847 25.01 27.4 81.4 23 4.9 40.9
16:35 1018 30.06 847 25.01 27.6 81.7 23 4.7 40.4
16:40 1018 30.06 847 25.01 27.5 81.6 24 5.2 41.4
16:55 1018 30.06 847 25.01 28.2 82.7 23 5.5 41.9
17:00 1018 30.06 847 25.01 28.5 83.3 22 5.1 41.1
17:05 1018 30.06 847 25.01 28.5 83.2 23 5.7 42.3
17:10 1018 30.06 847 25.01 28.1 82.6 23 5.1 41.3
17:15 1018 30.06 847 25.01 27.9 82.2 24 5.6 42
17:20 1018 30.06 847 25.01 27.9 82.2 23 5.3 41.5
18:25 1019 30.09 848 25.04 24.4 75.8 31 6.2 43.1
18:30 1019 30.09 848 25.04 24.2 75.5 31 6.3 43.3
18:35 1019 30.09 848 25.04 24.1 75.3 31 6.3 43.4
17:20 1018 30.06 847 25.01 27.9 82.2 23 5.3 41.5
18:05 1018 30.06 848 25.04 24.9 76.8 30 6.5 43.6
18:10 1018 30.06 848 25.04 24.6 76.3 30 5.9 42.7
17:20 1018 30.06 847 25.01 27.9 82.2 23 5.3 41.5
17:25 1018 30.06 848 25.04 27.1 80.7 24 5.2 41.4
17:30 1018 30.06 848 25.04 26.5 79.8 24 4.9 40.7
17:35 1018 30.06 848 25.04 26.4 79.5 25 5.3 41.5
17:40 1018 30.06 848 25.04 26.2 79.2 29 7.1 44.8
17:45 1018 30.06 848 25.04 25.9 78.6 29 6.8 44.3
17:50 1018 30.06 848 25.04 25.5 77.9 30 7 44.6
17:55 1018 30.06 848 25.04 25.4 77.6 30 6.9 44.5
18:00 1018 30.06 848 25.04 25.2 77.3 30 6.5 43.6
18:05 1018 30.06 848 25.04 24.9 76.8 30 6.5 43.6
18:15 1018 30.06 848 25.04 24.6 76.2 30 6 42.8
18:20 1018 30.06 848 25.04 24.5 76 30 6 42.9
18:25 1019 30.09 848 25.04 24.4 75.8 31 6.2 43.1
18:40 1019 30.09 848 25.04 24 75.1 32 6.3 43.4
18:45 1018 30.06 848 25.04 23.7 74.6 32 6.1 42.9
18:50 1018 30.06 848 25.04 23.7 74.6 31 5.7 42.3
18:55 1018 30.06 848 25.04 23.9 75 27 4 39.3
19:00 1018 30.06 848 25.04 24.4 75.9 33 7.4 45.3
19:05 1018 30.06 848 25.04 23.5 74.3 34 7 44.7
19:10 1018 30.06 847 25.01 23.1 73.6 34 6.4 43.6
19:15 1018 30.06 847 25.01 23 73.3 36 7.1 44.8
19:20 1018 30.06 847 25.01 22.6 72.6 35 6.4 43.6
19:25 1018 30.06 848 25.04 22.5 72.6 36 6.9 44.4
19:30 1018 30.06 848 25.04 22.2 71.9 40 8.2 46.8
19:35 1018 30.06 848 25.04 21.9 71.4 39 7.3 45.2
19:40 1018 30.06 848 25.04 21.6 70.9 43 8.6 47.5
19:45 1018 30.06 847 25.01 21.4 70.5 41 7.6 45.7
19:50 1018 30.06 847 25.01 21 69.8 43 8.1 46.5
19:55 1018 30.06 848 25.04 20.6 69 45 8.4 47.2
20:00 1018 30.06 848 25.04 20.3 68.6 45 8.1 46.6
20:05 1018 30.06 848 25.04 20.6 69 45 8.4 47
20:10 1018 30.06 848 25.04 20.9 69.6 40 7.1 44.8
20:15 1018 30.06 848 25.04 21.1 69.9 39 6.7 44
20:20 1019 30.09 848 25.04 21.3 70.4 38 6.5 43.7
20:25 1019 30.09 848 25.04 21.7 71.1 36 6.1 43
20:30 1019 30.09 848 25.04 21.7 71 36 6.3 43.3
20:35 1019 30.09 848 25.04 21.7 71.1 36 6 42.8
20:40 1019 30.09 848 25.04 21.9 71.5 39 7.5 45.5
20:45 1019 30.09 848 25.04 22 71.6 40 8 46.4
20:50 1019 30.09 848 25.04 22.1 71.7 36 6.5 43.7
20:55 1019 30.09 848 25.04 22 71.5 40 7.8 46
21:00 1019 30.09 848 25.04 21.7 71 37 6.3 43.4
21:05 1019 30.09 848 25.04 21.8 71.3 37 6.7 44
21:10 1019 30.09 848 25.04 21.5 70.8 41 7.8 46
21:15 1019 30.09 848 25.04 20.7 69.2 46 8.7 47.7
21:20 1019 30.09 848 25.04 19.9 67.7 47 8.3 47
21:25 1019 30.09 848 25.04 19 66.3 52 9.1 48.4
21:30 1019 30.09 848 25.04 18.8 65.9 47 7.4 45.4
21:35 1019 30.09 848 25.04 19.6 67.3 45 7.6 45.6
21:40 1019 30.09 848 25.04 20.3 68.5 40 6.3 43.4
21:45 1019 30.09 848 25.04 20.7 69.2 40 6.7 44.1
21:50 1019 30.09 848 25.04 20.8 69.5 37 5.9 42.6
21:55 1019 30.09 848 25.04 21.1 69.9 37 6.1 42.9
22:00 1019 30.09 848 25.04 20.9 69.5 40 6.9 44.5
22:05 1019 30.09 848 25.04 20.4 68.8 43 7.5 45.5
22:10 1019 30.09 848 25.04 20.1 68.2 42 7.1 44.7
22:15 1019 30.09 848 25.04 19.9 67.9 44 7.3 45.2
22:20 1019 30.09 848 25.04 19.7 67.5 43 6.8 44.3
22:25 1019 30.09 849 25.07 19.8 67.7 46 8.1 46.5
22:30 1019 30.09 849 25.07 19.6 67.2 47 8 46.5
22:35 1019 30.09 848 25.04 19.5 67.1 46 7.6 45.7
22:40 1019 30.09 849 25.07 19.5 67.1 47 8.1 46.6
22:45 1019 30.09 849 25.07 19.2 66.6 49 8.5 47.3
22:50 1020 30.12 849 25.07 18.9 66.1 50 8.4 47.2
22:55 1020 30.12 849 25.07 18.2 64.8 57 9.7 49.5
23:00 1020 30.12 849 25.07 17.7 63.8 55 8.5 47.3
23:05 1020 30.12 849 25.07 17.8 64.1 52 8.1 46.5
23:10 1020 30.12 849 25.07 17.8 64 53 8.2 46.8
23:15 1020 30.12 849 25.07 17.8 64 51 7.6 45.7
23:20 1020 30.12 849 25.07 18 64.5 50 7.4 45.4
23:25 1020 30.12 849 25.07 18.2 64.8 50 7.6 45.8
23:30 1020 30.12 849 25.07 18.4 65.1 48 7.1 44.9
23:35 1020 30.12 849 25.07 18.4 65.2 49 7.5 45.6
23:40 1020 30.12 849 25.07 18.3 64.9 50 7.8 46
23:45 1020 30.12 849 25.07 17.9 64.2 53 8.3 47
23:50 1020 30.12 849 25.07 16.9 62.5 60 9.1 48.4
23:55 1020 30.12 849 25.07 16.3 61.4 57 7.8 46
24:00 1020 30.12 849 25.07 16.9 62.5 55 8 46.4